Startpagina
METAR-TAF:

METAR-TAF

Vliegvelden :

Madrid-Cuatro Vientos, Spanje

breedte: 40-23N, lengte: 003-47W, hoogte: 690 m

Actueel weer

Dit bericht is 3 uur en het 59 minuten geleden gemaakt, om 19:00 UTC
Wind 2 kt uit het zuiden
Temperatuur 10°C
Vochtigheid 53%
Druk 1029 hPa
Zicht 10 km of meer
geen wolken onder 1500 m en geen cumulonimbus

METAR: LEVS 191900Z 17002KT CAVOK 10/01 Q1029

Tijdstip: 23:59 (22:59 UTC)

Verwachting

Dit bericht is 5 uur en het 59 minuten geleden gemaakt, om 17:00 UTC
Verwachting geldig van 19 om 18 UTC tot 20 om 03 UTC
Wind 2 kt uit variabele richting
Zicht 10 km of meer
geen wolken onder 1500 m en geen cumulonimbus

TAF: LEVS 191700Z 1918/2003 VRB02KT CAVOK

Waarnemingen en weersverwachtingen van meer dan 4000 vliegvelden (METAR en TAF).

De beschikbare stations zijn de gele en rode punten op de kaart.

Ga met uw muis naar het station om de naam te zien.

Klik dan om waarnemingen en weersverwachtingen te zien.

kaart wijzigen: klik op de groene knoppen met een zwart kruis om in te zoomen, op de groene knop met een streepje om uit te zoomen of op de groene pijlen voor aangrenzende kaarten.


METAR-TAF: